createdAt,value
2018-09-12T00:00:32.000Z,100783
2018-09-12T00:02:32.000Z,100790
2018-09-12T00:04:16.000Z,100789
2018-09-12T00:06:32.000Z,100784
2018-09-12T00:08:32.000Z,100782
2018-09-12T00:10:32.000Z,100788
2018-09-12T00:12:32.000Z,100784
2018-09-12T00:14:32.000Z,100779
2018-09-12T00:15:32.000Z,100775
2018-09-12T00:17:32.000Z,100777
2018-09-12T00:19:32.000Z,100774
2018-09-12T00:21:32.000Z,100772
2018-09-12T00:23:32.000Z,100774
2018-09-12T00:24:32.000Z,100769
2018-09-12T00:26:32.000Z,100765
2018-09-12T00:28:32.000Z,100766
2018-09-12T00:30:32.000Z,100758
2018-09-12T00:31:32.000Z,100750
2018-09-12T00:33:32.000Z,100749
2018-09-12T00:35:32.000Z,100751
2018-09-12T00:36:32.000Z,100753
2018-09-12T00:38:32.000Z,100754
2018-09-12T00:39:32.000Z,100758
2018-09-12T00:41:32.000Z,100756
2018-09-12T00:42:32.000Z,100756
2018-09-12T00:44:32.000Z,100754
2018-09-12T00:46:32.000Z,100762
2018-09-12T00:47:32.000Z,100756
2018-09-12T00:49:32.000Z,100751
2018-09-12T00:50:32.000Z,100747
2018-09-12T00:52:32.000Z,100749
2018-09-12T00:54:32.000Z,100751
2018-09-12T00:55:32.000Z,100746
2018-09-12T00:56:32.000Z,100745
2018-09-12T00:58:32.000Z,100746
2018-09-12T00:59:32.000Z,100748
2018-09-12T01:01:32.000Z,100747
2018-09-12T01:03:16.000Z,100745
2018-09-12T01:04:32.000Z,100746
2018-09-12T01:06:32.000Z,100741
2018-09-12T01:08:31.000Z,100739
2018-09-12T01:09:32.000Z,100743
2018-09-12T01:11:32.000Z,100734
2018-09-12T01:13:32.000Z,100735
2018-09-12T01:14:32.000Z,100739
2018-09-12T01:16:32.000Z,100739
2018-09-12T01:18:32.000Z,100734
2018-09-12T01:19:32.000Z,100731
2018-09-12T01:21:16.000Z,100738
2018-09-12T01:22:32.000Z,100738
2018-09-12T01:24:32.000Z,100733
2018-09-12T01:26:32.000Z,100734
2018-09-12T01:31:32.000Z,100733
2018-09-12T01:33:18.000Z,100727
2018-09-12T01:35:18.000Z,100731
2018-09-12T01:37:18.000Z,100733
2018-09-12T01:38:18.000Z,100730
2018-09-12T01:39:18.000Z,100724
2018-09-12T01:41:18.000Z,100725
2018-09-12T01:42:18.000Z,100728
2018-09-12T01:44:18.000Z,100720
2018-09-12T01:46:02.000Z,100716
2018-09-12T01:47:18.000Z,100718
2018-09-12T01:49:18.000Z,100715
2018-09-12T01:51:18.000Z,100715
2018-09-12T01:52:18.000Z,100712
2018-09-12T01:54:02.000Z,100715
2018-09-12T01:55:18.000Z,100710
2018-09-12T01:56:18.000Z,100711
2018-09-12T01:58:18.000Z,100715
2018-09-12T02:00:18.000Z,100713
2018-09-12T02:02:18.000Z,100714
2018-09-12T02:03:18.000Z,100710
2018-09-12T02:05:18.000Z,100712
2018-09-12T02:07:18.000Z,100704
2018-09-12T02:08:18.000Z,100706
2018-09-12T02:09:18.000Z,100706
2018-09-12T02:11:18.000Z,100706
2018-09-12T02:12:18.000Z,100701
2018-09-12T02:14:18.000Z,100704
2018-09-12T02:16:18.000Z,100714
2018-09-12T02:18:18.000Z,100702
2018-09-12T02:20:18.000Z,100703
2018-09-12T02:21:18.000Z,100698
2018-09-12T02:22:18.000Z,100700
2018-09-12T02:24:02.000Z,100700
2018-09-12T02:25:18.000Z,100701
2018-09-12T02:27:02.000Z,100706
2018-09-12T02:28:18.000Z,100706
2018-09-12T02:30:18.000Z,100696
2018-09-12T02:31:18.000Z,100700
2018-09-12T02:33:17.000Z,100694
2018-09-12T02:34:17.000Z,100694
2018-09-12T02:35:17.000Z,100690
2018-09-12T02:37:17.000Z,100699
2018-09-12T02:39:17.000Z,100697
2018-09-12T02:40:17.000Z,100695
2018-09-12T02:41:17.000Z,100694
2018-09-12T02:43:17.000Z,100691
2018-09-12T02:45:17.000Z,100689
2018-09-12T02:47:17.000Z,100694
2018-09-12T02:49:17.000Z,100696
2018-09-12T02:50:17.000Z,100694
2018-09-12T02:51:17.000Z,100688
2018-09-12T02:53:17.000Z,100689
2018-09-12T02:55:17.000Z,100689
2018-09-12T02:56:17.000Z,100689
2018-09-12T02:58:02.000Z,100687
2018-09-12T02:59:17.000Z,100689
2018-09-12T03:01:17.000Z,100685
2018-09-12T03:03:17.000Z,100687
2018-09-12T03:05:02.000Z,100688
2018-09-12T03:06:17.000Z,100687
2018-09-12T03:08:17.000Z,100688
2018-09-12T03:10:17.000Z,100682
2018-09-12T03:11:17.000Z,100680
2018-09-12T03:13:17.000Z,100672
2018-09-12T03:15:17.000Z,100668
2018-09-12T03:16:47.000Z,100670
2018-09-12T03:18:17.000Z,100666
2018-09-12T03:19:17.000Z,100662
2018-09-12T03:21:17.000Z,100662
2018-09-12T03:23:17.000Z,100660
2018-09-12T03:25:17.000Z,100656
2018-09-12T03:26:17.000Z,100655
2018-09-12T03:28:17.000Z,100653
2018-09-12T03:30:17.000Z,100652
2018-09-12T03:32:17.000Z,100653
2018-09-12T03:33:17.000Z,100648
2018-09-12T03:35:17.000Z,100651
2018-09-12T03:37:18.000Z,100648
2018-09-12T03:39:18.000Z,100653
2018-09-12T03:41:18.000Z,100659
2018-09-12T03:43:18.000Z,100658
2018-09-12T03:44:18.000Z,100654
2018-09-12T03:46:18.000Z,100656
2018-09-12T03:48:18.000Z,100652
2018-09-12T03:50:18.000Z,100654
2018-09-12T03:52:18.000Z,100648
2018-09-12T03:54:18.000Z,100642
2018-09-12T03:55:18.000Z,100641
2018-09-12T03:57:18.000Z,100645
2018-09-12T03:59:18.000Z,100651
2018-09-12T04:01:18.000Z,100651
2018-09-12T04:03:18.000Z,100652
2018-09-12T04:04:18.000Z,100658
2018-09-12T04:06:18.000Z,100656
2018-09-12T04:07:18.000Z,100655
2018-09-12T04:09:18.000Z,100654
2018-09-12T04:11:18.000Z,100656
2018-09-12T04:13:18.000Z,100655
2018-09-12T04:15:18.000Z,100661
2018-09-12T04:16:18.000Z,100657
2018-09-12T04:18:18.000Z,100658
2018-09-12T04:20:18.000Z,100664
2018-09-12T04:22:18.000Z,100655
2018-09-12T04:23:18.000Z,100655
2018-09-12T04:25:18.000Z,100651
2018-09-12T04:27:18.000Z,100652
2018-09-12T04:29:18.000Z,100649
2018-09-12T04:31:03.000Z,100648
2018-09-12T04:32:18.000Z,100650
2018-09-12T04:33:18.000Z,100656
2018-09-12T04:35:18.000Z,100654
2018-09-12T04:37:18.000Z,100656
2018-09-12T04:39:03.000Z,100652
2018-09-12T04:40:18.000Z,100652
2018-09-12T04:41:18.000Z,100653
2018-09-12T04:43:18.000Z,100653
2018-09-12T04:45:18.000Z,100655
2018-09-12T04:46:18.000Z,100660
2018-09-12T04:47:18.000Z,100663
2018-09-12T04:49:18.000Z,100661
2018-09-12T04:50:18.000Z,100661
2018-09-12T04:52:18.000Z,100664
2018-09-12T04:53:18.000Z,100664
2018-09-12T04:54:18.000Z,100669
2018-09-12T04:56:18.000Z,100671
2018-09-12T04:58:18.000Z,100682
2018-09-12T05:00:18.000Z,100670
2018-09-12T05:02:18.000Z,100674
2018-09-12T05:03:18.000Z,100677
2018-09-12T05:05:18.000Z,100675
2018-09-12T05:06:18.000Z,100679
2018-09-12T05:08:18.000Z,100684
2018-09-12T05:10:18.000Z,100686
2018-09-12T05:11:18.000Z,100681
2018-09-12T05:13:18.000Z,100682
2018-09-12T05:14:18.000Z,100683
2018-09-12T05:16:18.000Z,100678
2018-09-12T05:18:02.000Z,100678
2018-09-12T05:19:18.000Z,100675
2018-09-12T05:21:18.000Z,100679
2018-09-12T05:23:18.000Z,100683
2018-09-12T05:25:18.000Z,100676
2018-09-12T05:27:18.000Z,100677
2018-09-12T05:28:18.000Z,100682
2018-09-12T05:30:18.000Z,100682
2018-09-12T05:32:18.000Z,100678
2018-09-12T05:33:18.000Z,100682
2018-09-12T05:35:18.000Z,100689
2018-09-12T05:36:18.000Z,100686
2018-09-12T05:38:18.000Z,100685
2018-09-12T05:39:18.000Z,100687
2018-09-12T05:41:18.000Z,100684
2018-09-12T05:43:18.000Z,100684
2018-09-12T05:44:18.000Z,100684
2018-09-12T05:46:18.000Z,100683
2018-09-12T05:47:18.000Z,100685
2018-09-12T05:49:18.000Z,100688
2018-09-12T05:51:02.000Z,100697
2018-09-12T05:52:18.000Z,100691
2018-09-12T05:53:18.000Z,100696
2018-09-12T05:54:18.000Z,100693
2018-09-12T05:56:18.000Z,100694
2018-09-12T05:57:18.000Z,100692
2018-09-12T05:59:18.000Z,100695
2018-09-12T06:01:18.000Z,100698
2018-09-12T06:03:18.000Z,100699
2018-09-12T06:05:18.000Z,100698
2018-09-12T06:06:18.000Z,100702
2018-09-12T06:08:18.000Z,100693
2018-09-12T06:10:18.000Z,100694
2018-09-12T06:12:18.000Z,100692
2018-09-12T06:13:18.000Z,100691
2018-09-12T06:15:18.000Z,100691
2018-09-12T06:17:18.000Z,100694
2018-09-12T06:19:18.000Z,100696
2018-09-12T06:20:18.000Z,100696
2018-09-12T06:22:18.000Z,100691
2018-09-12T06:24:18.000Z,100692
2018-09-12T06:25:18.000Z,100688
2018-09-12T06:27:02.000Z,100696
2018-09-12T06:28:18.000Z,100694
2018-09-12T06:30:18.000Z,100694
2018-09-12T06:31:18.000Z,100693
2018-09-12T06:32:18.000Z,100692
2018-09-12T06:34:03.000Z,100692
2018-09-12T06:35:18.000Z,100692
2018-09-12T06:37:18.000Z,100698
2018-09-12T06:39:18.000Z,100702
2018-09-12T06:40:18.000Z,100703
2018-09-12T06:42:18.000Z,100699
2018-09-12T06:44:02.000Z,100704
2018-09-12T06:45:18.000Z,100705
2018-09-12T06:47:02.000Z,100709
2018-09-12T06:48:17.000Z,100707
2018-09-12T06:50:17.000Z,100713
2018-09-12T06:52:17.000Z,100719
2018-09-12T06:54:17.000Z,100721
2018-09-12T06:56:17.000Z,100720
2018-09-12T06:58:02.000Z,100719
2018-09-12T06:59:02.000Z,100720
2018-09-12T07:00:17.000Z,100716
2018-09-12T07:02:17.000Z,100718
2018-09-12T07:03:17.000Z,100721
2018-09-12T07:04:17.000Z,100719
2018-09-12T07:06:17.000Z,100719
2018-09-12T07:08:17.000Z,100721
2018-09-12T07:09:17.000Z,100722
2018-09-12T07:11:17.000Z,100722
2018-09-12T07:12:17.000Z,100721
2018-09-12T07:14:17.000Z,100721
2018-09-12T07:16:17.000Z,100719
2018-09-12T07:17:17.000Z,100731
2018-09-12T07:18:17.000Z,100724
2018-09-12T07:20:02.000Z,100726
2018-09-12T07:21:17.000Z,100737
2018-09-12T07:22:17.000Z,100732
2018-09-12T07:24:17.000Z,100736
2018-09-12T07:25:17.000Z,100737
2018-09-12T07:27:02.000Z,100738
2018-09-12T07:28:17.000Z,100739
2018-09-12T07:30:17.000Z,100745
2018-09-12T07:32:17.000Z,100745
2018-09-12T07:33:17.000Z,100745
2018-09-12T07:34:17.000Z,100745
2018-09-12T07:36:17.000Z,100744
2018-09-12T07:37:17.000Z,100742
2018-09-12T07:39:17.000Z,100743
2018-09-12T07:41:17.000Z,100745
2018-09-12T07:42:17.000Z,100748
2018-09-12T07:44:17.000Z,100752
2018-09-12T07:46:17.000Z,100751
2018-09-12T07:48:17.000Z,100745
2018-09-12T07:50:02.000Z,100750
2018-09-12T07:51:18.000Z,100745
2018-09-12T07:53:18.000Z,100747
2018-09-12T07:55:18.000Z,100753
2018-09-12T07:57:18.000Z,100752
2018-09-12T07:59:18.000Z,100757
2018-09-12T08:00:18.000Z,100755
2018-09-12T08:02:18.000Z,100759
2018-09-12T08:04:18.000Z,100747
2018-09-12T08:05:18.000Z,100760
2018-09-12T08:07:18.000Z,100757
2018-09-12T08:09:18.000Z,100756
2018-09-12T08:10:47.000Z,100757
2018-09-12T08:12:18.000Z,100756
2018-09-12T08:14:18.000Z,100758
2018-09-12T08:15:18.000Z,100748
2018-09-12T08:16:18.000Z,100745
2018-09-12T08:17:47.000Z,100751
2018-09-12T08:19:18.000Z,100751
2018-09-12T08:21:18.000Z,100764
2018-09-12T08:23:18.000Z,100764
2018-09-12T08:24:47.000Z,100762
2018-09-12T08:26:18.000Z,100760
2018-09-12T08:28:18.000Z,100759
2018-09-12T08:29:18.000Z,100764
2018-09-12T08:31:18.000Z,100760
2018-09-12T08:33:18.000Z,100762
2018-09-12T08:35:18.000Z,100755
2018-09-12T08:37:18.000Z,100750
2018-09-12T08:38:18.000Z,100749
2018-09-12T08:39:18.000Z,100750
2018-09-12T08:41:02.000Z,100743
2018-09-12T08:42:18.000Z,100745
2018-09-12T08:43:18.000Z,100747
2018-09-12T08:45:18.000Z,100749
2018-09-12T08:47:02.000Z,100749
2018-09-12T08:48:18.000Z,100737
2018-09-12T08:49:18.000Z,100742
2018-09-12T08:50:18.000Z,100749
2018-09-12T08:52:18.000Z,100754
2018-09-12T08:54:18.000Z,100752
2018-09-12T08:56:18.000Z,100756
2018-09-12T08:58:18.000Z,100749
2018-09-12T09:00:02.000Z,100744
2018-09-12T09:01:18.000Z,100746
2018-09-12T09:03:18.000Z,100745
2018-09-12T09:05:18.000Z,100757
2018-09-12T09:07:18.000Z,100742
2018-09-12T09:08:47.000Z,100746
2018-09-12T09:10:18.000Z,100735
2018-09-12T09:12:18.000Z,100740
2018-09-12T09:14:18.000Z,100740
2018-09-12T09:16:18.000Z,100735
2018-09-12T09:18:02.000Z,100731
2018-09-12T09:19:18.000Z,100734
2018-09-12T09:21:18.000Z,100731
2018-09-12T09:23:02.000Z,100743
2018-09-12T09:24:18.000Z,100740
2018-09-12T09:26:18.000Z,100747
2018-09-12T09:28:18.000Z,100738
2018-09-12T09:29:18.000Z,100730
2018-09-12T09:31:18.000Z,100743
2018-09-12T09:32:18.000Z,100740
2018-09-12T09:34:18.000Z,100738
2018-09-12T09:35:18.000Z,100731
2018-09-12T09:37:18.000Z,100735
2018-09-12T09:38:18.000Z,100734
2018-09-12T09:40:18.000Z,100739
2018-09-12T09:42:18.000Z,100739
2018-09-12T09:44:18.000Z,100752
2018-09-12T09:46:18.000Z,100740
2018-09-12T09:48:02.000Z,100745
2018-09-12T09:49:18.000Z,100746
2018-09-12T09:51:18.000Z,100746
2018-09-12T09:52:18.000Z,100742
2018-09-12T09:54:18.000Z,100742
2018-09-12T09:56:18.000Z,100734
2018-09-12T09:58:17.000Z,100732
2018-09-12T09:59:47.000Z,100732
2018-09-12T10:01:17.000Z,100736
2018-09-12T10:03:17.000Z,100734
2018-09-12T10:04:17.000Z,100731
2018-09-12T10:06:17.000Z,100738
2018-09-12T10:08:17.000Z,100725
2018-09-12T10:10:02.000Z,100726
2018-09-12T10:11:17.000Z,100721
2018-09-12T10:13:17.000Z,100736
2018-09-12T10:15:17.000Z,100735
2018-09-12T10:17:17.000Z,100733
2018-09-12T10:18:17.000Z,100736
2018-09-12T10:19:17.000Z,100736
2018-09-12T10:21:17.000Z,100741
2018-09-12T10:22:17.000Z,100743
2018-09-12T10:24:17.000Z,100743
2018-09-12T10:26:17.000Z,100748
2018-09-12T10:28:17.000Z,100743
2018-09-12T10:29:17.000Z,100745
2018-09-12T10:30:17.000Z,100742
2018-09-12T10:32:17.000Z,100747
2018-09-12T10:33:17.000Z,100746
2018-09-12T10:35:02.000Z,100750
2018-09-12T10:36:17.000Z,100744
2018-09-12T10:38:17.000Z,100738
2018-09-12T10:40:17.000Z,100738
2018-09-12T10:41:17.000Z,100741
2018-09-12T10:42:17.000Z,100737
2018-09-12T10:44:02.000Z,100737
2018-09-12T10:45:02.000Z,100732
2018-09-12T10:46:17.000Z,100743
2018-09-12T10:48:17.000Z,100745
2018-09-12T10:49:17.000Z,100748
2018-09-12T10:51:17.000Z,100743
2018-09-12T10:52:17.000Z,100738
2018-09-12T10:53:17.000Z,100745
2018-09-12T10:55:17.000Z,100749
2018-09-12T10:57:02.000Z,100750
2018-09-12T10:58:17.000Z,100743
2018-09-12T11:00:17.000Z,100744
2018-09-12T11:02:18.000Z,100741
2018-09-12T11:03:18.000Z,100743
2018-09-12T11:04:18.000Z,100741
2018-09-12T11:05:18.000Z,100739
2018-09-12T11:07:18.000Z,100736
2018-09-12T11:09:18.000Z,100737
2018-09-12T11:11:18.000Z,100734
2018-09-12T11:12:18.000Z,100736
2018-09-12T11:49:51.000Z,100747
2018-09-12T11:51:22.000Z,100739
2018-09-12T11:52:37.000Z,100745
2018-09-12T11:54:37.000Z,100746
2018-09-12T11:56:37.000Z,100747
2018-09-12T11:57:37.000Z,100753
2018-09-12T11:58:37.000Z,100756
2018-09-12T12:00:37.000Z,100756
2018-09-12T12:02:37.000Z,100759
2018-09-12T12:04:37.000Z,100756
2018-09-12T12:05:37.000Z,100758
2018-09-12T12:07:37.000Z,100759
2018-09-12T12:09:37.000Z,100757
2018-09-12T12:10:37.000Z,100752
2018-09-12T12:12:37.000Z,100755
2018-09-12T12:14:22.000Z,100760
2018-09-12T12:15:37.000Z,100754
2018-09-12T12:17:37.000Z,100758
2018-09-12T12:18:37.000Z,100760
2018-09-12T12:20:37.000Z,100759
2018-09-12T12:22:37.000Z,100754
2018-09-12T12:24:22.000Z,100756
2018-09-12T12:25:37.000Z,100758
2018-09-12T12:26:37.000Z,100759
2018-09-12T12:28:37.000Z,100760
2018-09-12T12:30:37.000Z,100764
2018-09-12T12:31:37.000Z,100761
2018-09-12T12:33:37.000Z,100761
2018-09-12T12:35:37.000Z,100776
2018-09-12T12:36:37.000Z,100775
2018-09-12T12:38:22.000Z,100781
2018-09-12T12:39:37.000Z,100778
2018-09-12T12:41:37.000Z,100785
2018-09-12T12:42:37.000Z,100779
2018-09-12T12:43:37.000Z,100780
2018-09-12T12:45:37.000Z,100785
2018-09-12T12:47:22.000Z,100786
2018-09-12T12:48:37.000Z,100785
2018-09-12T12:50:37.000Z,100785
2018-09-12T12:51:37.000Z,100790
2018-09-12T12:53:37.000Z,100780
2018-09-12T12:55:22.000Z,100779
2018-09-12T12:56:37.000Z,100791
2018-09-12T12:57:37.000Z,100787
2018-09-12T12:59:37.000Z,100795
2018-09-12T13:00:37.000Z,100794
2018-09-12T13:02:37.000Z,100800
2018-09-12T13:03:37.000Z,100791
2018-09-12T13:05:37.000Z,100801
2018-09-12T13:06:37.000Z,100794
2018-09-12T13:08:37.000Z,100789
2018-09-12T13:10:21.000Z,100800
2018-09-12T13:11:37.000Z,100795
2018-09-12T13:13:21.000Z,100795
2018-09-12T13:14:37.000Z,100801
2018-09-12T13:15:37.000Z,100800
2018-09-12T13:16:37.000Z,100794
2018-09-12T13:18:37.000Z,100802
2018-09-12T13:19:37.000Z,100808
2018-09-12T13:21:37.000Z,100802
2018-09-12T13:23:06.000Z,100804
2018-09-12T13:24:37.000Z,100810
2018-09-12T13:26:37.000Z,100805
2018-09-12T13:27:37.000Z,100807
2018-09-12T13:28:37.000Z,100805
2018-09-12T13:30:37.000Z,100807
2018-09-12T13:31:37.000Z,100804
2018-09-12T13:33:37.000Z,100806
2018-09-12T13:34:37.000Z,100808
2018-09-12T13:35:37.000Z,100807
2018-09-12T13:37:37.000Z,100808
2018-09-12T13:38:37.000Z,100811
2018-09-12T13:40:37.000Z,100812
2018-09-12T13:41:37.000Z,100813
2018-09-12T13:43:37.000Z,100816
2018-09-12T13:45:37.000Z,100820
2018-09-12T13:47:37.000Z,100836
2018-09-12T13:48:37.000Z,100833
2018-09-12T13:50:37.000Z,100834
2018-09-12T13:52:21.000Z,100845
2018-09-12T13:53:37.000Z,100848
2018-09-12T13:54:37.000Z,100849
2018-09-12T13:56:37.000Z,100856
2018-09-12T13:58:37.000Z,100856
2018-09-12T14:00:37.000Z,100857
2018-09-12T14:02:37.000Z,100860
2018-09-12T14:04:37.000Z,100865
2018-09-12T14:06:37.000Z,100867
2018-09-12T14:08:37.000Z,100869
2018-09-12T14:09:37.000Z,100874
2018-09-12T14:11:37.000Z,100868
2018-09-12T14:12:37.000Z,100873
2018-09-12T14:14:37.000Z,100871
2018-09-12T14:15:37.000Z,100877
2018-09-12T14:17:37.000Z,100878
2018-09-12T14:18:37.000Z,100884
2018-09-12T14:20:37.000Z,100875
2018-09-12T14:22:37.000Z,100883
2018-09-12T14:23:37.000Z,100881
2018-09-12T14:25:22.000Z,100886
2018-09-12T14:26:37.000Z,100888
2018-09-12T14:28:37.000Z,100891
2018-09-12T14:30:22.000Z,100894
2018-09-12T14:31:37.000Z,100892
2018-09-12T14:32:37.000Z,100894
2018-09-12T14:34:22.000Z,100893
2018-09-12T14:35:37.000Z,100897
2018-09-12T14:36:37.000Z,100889
2018-09-12T14:38:37.000Z,100892
2018-09-12T14:40:37.000Z,100889
2018-09-12T14:42:22.000Z,100888
2018-09-12T14:43:37.000Z,100894
2018-09-12T14:44:37.000Z,100900
2018-09-12T14:45:37.000Z,100901
2018-09-12T14:47:37.000Z,100902
2018-09-12T14:49:37.000Z,100898
2018-09-12T14:50:37.000Z,100894
2018-09-12T14:52:37.000Z,100899
2018-09-12T14:54:37.000Z,100905
2018-09-12T14:56:22.000Z,100897
2018-09-12T14:57:37.000Z,100903
2018-09-12T14:58:37.000Z,100902
2018-09-12T15:00:37.000Z,100904
2018-09-12T15:02:37.000Z,100907
2018-09-12T15:04:37.000Z,100914
2018-09-12T15:06:37.000Z,100909
2018-09-12T15:07:37.000Z,100912
2018-09-12T15:09:37.000Z,100914
2018-09-12T15:10:37.000Z,100912
2018-09-12T15:12:37.000Z,100914
2018-09-12T15:14:37.000Z,100909
2018-09-12T15:16:37.000Z,100913
2018-09-12T15:18:22.000Z,100910
2018-09-12T15:19:37.000Z,100926
2018-09-12T15:21:37.000Z,100926
2018-09-12T15:22:37.000Z,100917
2018-09-12T15:24:22.000Z,100930
2018-09-12T15:25:37.000Z,100929
2018-09-12T15:26:37.000Z,100928
2018-09-12T15:28:37.000Z,100934
2018-09-12T15:30:37.000Z,100931
2018-09-12T15:32:37.000Z,100926
2018-09-12T15:34:37.000Z,100930
2018-09-12T15:36:37.000Z,100936
2018-09-12T15:38:37.000Z,100940
2018-09-12T15:39:37.000Z,100936
2018-09-12T15:40:37.000Z,100932
2018-09-12T15:41:37.000Z,100934
2018-09-12T15:43:37.000Z,100927
2018-09-12T15:45:37.000Z,100927
2018-09-12T15:46:37.000Z,100926
2018-09-12T15:48:22.000Z,100931
2018-09-12T15:49:37.000Z,100934
2018-09-12T15:50:37.000Z,100932
2018-09-12T15:52:37.000Z,100928
2018-09-12T15:54:37.000Z,100924
2018-09-12T15:55:37.000Z,100929
2018-09-12T15:57:37.000Z,100929
2018-09-12T15:58:37.000Z,100925
2018-09-12T16:00:37.000Z,100922
2018-09-12T16:01:37.000Z,100924
2018-09-12T16:03:37.000Z,100927
2018-09-12T16:05:37.000Z,100926
2018-09-12T16:07:07.000Z,100927
2018-09-12T16:08:37.000Z,100925
2018-09-12T16:10:37.000Z,100924
2018-09-12T16:12:37.000Z,100929
2018-09-12T16:14:22.000Z,100917
2018-09-12T16:15:22.000Z,100924
2018-09-12T16:16:37.000Z,100924
2018-09-12T16:17:37.000Z,100918
2018-09-12T16:19:37.000Z,100919
2018-09-12T16:20:37.000Z,100917
2018-09-12T16:21:37.000Z,100918
2018-09-12T16:23:37.000Z,100920
2018-09-12T16:25:37.000Z,100924
2018-09-12T16:26:37.000Z,100929
2018-09-12T16:28:37.000Z,100921
2018-09-12T16:29:37.000Z,100925
2018-09-12T16:31:37.000Z,100936
2018-09-12T16:32:37.000Z,100935
2018-09-12T16:33:37.000Z,100939
2018-09-12T16:35:37.000Z,100943
2018-09-12T16:37:37.000Z,100943
2018-09-12T16:38:37.000Z,100941
2018-09-12T16:39:37.000Z,100938
2018-09-12T16:41:37.000Z,100937
2018-09-12T16:42:37.000Z,100930
2018-09-12T16:43:37.000Z,100933
2018-09-12T16:44:37.000Z,100924
2018-09-12T16:46:37.000Z,100936
2018-09-12T16:48:37.000Z,100934
2018-09-12T16:50:37.000Z,100933
2018-09-12T16:52:37.000Z,100934
2018-09-12T16:54:37.000Z,100934
2018-09-12T16:56:22.000Z,100934
2018-09-12T16:57:22.000Z,100934
2018-09-12T16:58:37.000Z,100933
2018-09-12T17:00:37.000Z,100934
2018-09-12T17:02:37.000Z,100931
2018-09-12T17:04:37.000Z,100929
2018-09-12T17:06:22.000Z,100937
2018-09-12T17:07:37.000Z,100935
2018-09-12T17:08:37.000Z,100933
2018-09-12T17:10:22.000Z,100934
2018-09-12T17:11:37.000Z,100932
2018-09-12T17:12:37.000Z,100933
2018-09-12T17:14:37.000Z,100941
2018-09-12T17:16:37.000Z,100944
2018-09-12T17:17:37.000Z,100945
2018-09-12T17:19:22.000Z,100949
2018-09-12T17:20:37.000Z,100945
2018-09-12T17:21:37.000Z,100949
2018-09-12T17:23:37.000Z,100953
2018-09-12T17:24:37.000Z,100953
2018-09-12T17:26:37.000Z,100952
2018-09-12T17:27:37.000Z,100954
2018-09-12T17:29:37.000Z,100954
2018-09-12T17:31:37.000Z,100957
2018-09-12T17:33:37.000Z,100952
2018-09-12T17:35:37.000Z,100958
2018-09-12T17:36:37.000Z,100958
2018-09-12T17:38:37.000Z,100959
2018-09-12T17:40:37.000Z,100963
2018-09-12T17:42:37.000Z,100962
2018-09-12T17:44:37.000Z,100968
2018-09-12T17:46:37.000Z,100971
2018-09-12T17:47:37.000Z,100964
2018-09-12T17:49:37.000Z,100964
2018-09-12T17:51:37.000Z,100967
2018-09-12T17:53:37.000Z,100964
2018-09-12T17:55:37.000Z,100962
2018-09-12T17:57:37.000Z,100965
2018-09-12T17:59:37.000Z,100952
2018-09-12T18:01:37.000Z,100952
2018-09-12T18:03:22.000Z,100949
2018-09-12T18:04:37.000Z,100954
2018-09-12T18:06:22.000Z,100958
2018-09-12T18:07:37.000Z,100957
2018-09-12T18:09:37.000Z,100955
2018-09-12T18:11:37.000Z,100943
2018-09-12T18:13:22.000Z,100951
2018-09-12T18:14:37.000Z,100947
2018-09-12T18:15:37.000Z,100946
2018-09-12T18:17:37.000Z,100946
2018-09-12T18:18:37.000Z,100941
2018-09-12T18:20:37.000Z,100941
2018-09-12T18:22:37.000Z,100941
2018-09-12T18:24:37.000Z,100938
2018-09-12T18:26:37.000Z,100939
2018-09-12T18:28:37.000Z,100942
2018-09-12T18:29:37.000Z,100934
2018-09-12T18:31:37.000Z,100938
2018-09-12T18:33:37.000Z,100928
2018-09-12T18:35:22.000Z,100935
2018-09-12T18:36:37.000Z,100936
2018-09-12T18:37:37.000Z,100937
2018-09-12T18:39:22.000Z,100940
2018-09-12T18:40:37.000Z,100941
2018-09-12T18:42:37.000Z,100944
2018-09-12T18:44:37.000Z,100947
2018-09-12T18:45:37.000Z,100947
2018-09-12T18:47:37.000Z,100944
2018-09-12T18:49:37.000Z,100940
2018-09-12T18:51:37.000Z,100930
2018-09-12T18:53:37.000Z,100936
2018-09-12T18:55:22.000Z,100943
2018-09-12T18:56:37.000Z,100943
2018-09-12T18:58:37.000Z,100943
2018-09-12T18:59:37.000Z,100945
2018-09-12T19:01:22.000Z,100943
2018-09-12T19:02:37.000Z,100946
2018-09-12T19:04:37.000Z,100958
2018-09-12T19:06:37.000Z,100958
2018-09-12T19:08:22.000Z,100955
2018-09-12T19:09:37.000Z,100962
2018-09-12T19:11:37.000Z,100962
2018-09-12T19:12:37.000Z,100961
2018-09-12T19:14:37.000Z,100967
2018-09-12T19:16:37.000Z,100962
2018-09-12T19:18:37.000Z,100966
2018-09-12T19:20:37.000Z,100967
2018-09-12T19:22:37.000Z,100968
2018-09-12T19:24:37.000Z,100961
2018-09-12T19:26:37.000Z,100968
2018-09-12T19:28:37.000Z,100960
2018-09-12T19:29:37.000Z,100966
2018-09-12T19:31:22.000Z,100962
2018-09-12T19:32:37.000Z,100965
2018-09-12T19:33:37.000Z,100961
2018-09-12T19:35:37.000Z,100962
2018-09-12T19:36:37.000Z,100963
2018-09-12T19:38:37.000Z,100959
2018-09-12T19:40:22.000Z,100963
2018-09-12T19:41:37.000Z,100962
2018-09-12T19:43:37.000Z,100961
2018-09-12T19:44:37.000Z,100959
2018-09-12T19:46:37.000Z,100960
2018-09-12T19:48:37.000Z,100961
2018-09-12T19:49:37.000Z,100966
2018-09-12T19:51:37.000Z,100963
2018-09-12T19:52:37.000Z,100965
2018-09-12T19:54:37.000Z,100974
2018-09-12T19:55:37.000Z,100975
2018-09-12T19:56:37.000Z,100973
2018-09-12T19:58:37.000Z,100975
2018-09-12T20:00:37.000Z,100980
2018-09-12T20:02:22.000Z,100975
2018-09-12T20:03:37.000Z,100972
2018-09-12T20:04:37.000Z,100974
2018-09-12T20:06:37.000Z,100968
2018-09-12T20:07:37.000Z,100961
2018-09-12T20:09:37.000Z,100957
2018-09-12T20:10:37.000Z,100958
2018-09-12T20:12:37.000Z,100959
2018-09-12T20:13:37.000Z,100962
2018-09-12T20:15:22.000Z,100966
2018-09-12T20:16:37.000Z,100962
2018-09-12T20:18:37.000Z,100968
2018-09-12T20:20:37.000Z,100962
2018-09-12T20:21:37.000Z,100963
2018-09-12T20:23:37.000Z,100958
2018-09-12T20:25:22.000Z,100962
2018-09-12T20:26:37.000Z,100966
2018-09-12T20:28:37.000Z,100969
2018-09-12T20:29:37.000Z,100970
2018-09-12T20:30:37.000Z,100972
2018-09-12T20:32:22.000Z,100966
2018-09-12T20:34:37.000Z,100964
2018-09-12T20:35:37.000Z,100964
2018-09-12T20:37:37.000Z,100963
2018-09-12T20:39:37.000Z,100966
2018-09-12T20:40:37.000Z,100966
2018-09-12T20:41:37.000Z,100959
2018-09-12T20:42:37.000Z,100961
2018-09-12T20:44:22.000Z,100957
2018-09-12T20:45:37.000Z,100965
2018-09-12T20:46:37.000Z,100963